Time;durP1;ratioP1;P1;durP2;ratioP2;P2;SDS_P1;SDS_P2;PMS_P1;PMS_P2;Temp;Humidity;BMP_temperature;BMP_pressure;BME280_temperature;BME280_humidity;BME280_pressure;Samples;Min_cycle;Max_cycle;Signal;HPM_P1;HPM_P2
2023/06/20 00:01:13;;;;;;;5.20;4.70;;;22.40;66.40;;;;;;5073952;28;20123;-36
2023/06/20 00:03:40;;;;;;;6.28;4.95;;;22.30;62.90;;;;;;5072605;28;20082;-39
2023/06/20 00:06:07;;;;;;;6.55;5.35;;;22.20;66.50;;;;;;5072689;28;20053;-36
2023/06/20 00:08:34;;;;;;;7.13;4.85;;;;;;;;;;5078236;28;20044;-36
2023/06/20 00:11:02;;;;;;;6.47;5.45;;;22.40;59.20;;;;;;5092813;28;20060;-36
2023/06/20 00:13:29;;;;;;;6.43;5.22;;;;;;;;;;5092333;28;20112;-36
2023/06/20 00:15:57;;;;;;;8.65;5.53;;;22.40;74.60;;;;;;5092632;28;20051;-40
2023/06/20 00:18:24;;;;;;;6.97;5.40;;;22.90;75.90;;;;;;5085133;28;20055;-37
2023/06/20 00:20:53;;;;;;;7.28;5.47;;;;;;;;;;5072158;28;20123;-38
2023/06/20 00:23:20;;;;;;;7.03;5.35;;;23.30;75.50;;;;;;5072191;28;20050;-40
2023/06/20 00:25:47;;;;;;;6.90;5.45;;;;;;;;;;5072117;28;20048;-36
2023/06/20 00:28:17;;;;;;;6.35;5.72;;;22.30;75.10;;;;;;5072396;28;20127;-36
2023/06/20 00:30:43;;;;;;;8.05;5.80;;;22.80;66.70;;;;;;5072023;28;20113;-38
2023/06/20 00:33:10;;;;;;;8.07;5.68;;;22.10;75.50;;;;;;5071873;28;20131;-37
2023/06/20 00:35:37;;;;;;;9.63;5.53;;;22.30;75.70;;;;;;5073224;28;20473;-37
2023/06/20 00:38:04;;;;;;;7.22;5.18;;;23.20;75.10;;;;;;5090397;28;20489;-39
2023/06/20 00:40:30;;;;;;;7.85;5.38;;;22.40;75.70;;;;;;5092359;28;20131;-36
2023/06/20 00:42:58;;;;;;;5.80;5.20;;;;;;;;;;5091962;28;20135;-36
2023/06/20 00:45:32;;;;;;;6.80;5.40;;;22.20;74.80;;;;;;5092364;28;20136;-37
2023/06/20 00:48:00;;;;;;;8.15;5.50;;;22.30;75.70;;;;;;5092458;28;20097;-38
2023/06/20 00:50:27;;;;;;;8.80;5.60;;;22.00;75.10;;;;;;5092385;28;20131;-39
2023/06/20 00:52:59;;;;;;;8.75;5.80;;;21.70;74.30;;;;;;5077385;28;20055;-36
2023/06/20 00:55:26;;;;;;;6.72;5.50;;;21.90;74.80;;;;;;5071853;28;20517;-38
2023/06/20 00:57:53;;;;;;;7.63;5.88;;;22.90;75.40;;;;;;5071951;28;20127;-39
2023/06/20 01:00:20;;;;;;;8.45;5.78;;;22.50;60.10;;;;;;5071804;28;20401;-36
2023/06/20 01:02:48;;;;;;;7.72;5.72;;;22.60;76.00;;;;;;5071653;28;20127;-37
2023/06/20 01:05:15;;;;;;;7.53;5.95;;;21.90;75.30;;;;;;5080970;28;20054;-40
2023/06/20 01:07:44;;;;;;;7.28;5.88;;;22.50;61.40;;;;;;5091998;28;20119;-36
2023/06/20 01:10:15;;;;;;;7.65;5.97;;;22.20;59.60;;;;;;5090529;28;20051;-38
2023/06/20 01:12:45;;;;;;;9.00;5.85;;;22.20;59.70;;;;;;5091078;28;20044;-40
2023/06/20 01:15:16;;;;;;;8.20;5.78;;;21.20;74.80;;;;;;5091994;28;20135;-37
2023/06/20 01:17:46;;;;;;;8.50;6.50;;;22.20;59.70;;;;;;5091882;28;20134;-38
2023/06/20 01:20:16;;;;;;;8.32;6.28;;;22.20;59.80;;;;;;5092028;28;20135;-37
2023/06/20 01:22:57;;;;;;;6.40;5.43;;;22.20;59.90;;;;;;5091327;28;20062;-36
2023/06/20 01:25:31;;;;;;;7.60;6.00;;;22.10;75.80;;;;;;5090046;28;20485;-37
2023/06/20 01:28:05;;;;;;;11.60;6.80;;;22.20;59.90;;;;;;5091493;28;20048;-39
2023/06/20 01:30:37;;;;;;;7.30;6.18;;;21.90;73.20;;;;;;5091843;28;20047;-36
2023/06/20 01:33:04;;;;;;;9.48;6.28;;;21.50;76.00;;;;;;5091416;28;20466;-36
2023/06/20 01:35:31;;;;;;;8.38;6.50;;;22.50;76.20;;;;;;5091706;28;20139;-40
2023/06/20 01:38:01;;;;;;;8.05;6.90;;;21.80;63.80;;;;;;5090865;28;20500;-38
2023/06/20 01:40:27;;;;;;;7.57;6.40;;;21.80;62.30;;;;;;5091747;28;20044;-37
2023/06/20 01:42:57;;;;;;;8.88;6.35;;;23.20;76.30;;;;;;5072283;28;20122;-37
2023/06/20 01:45:24;;;;;;;9.43;6.85;;;22.10;72.00;;;;;;5071347;28;20136;-36
2023/06/20 01:47:50;;;;;;;8.73;6.32;;;21.70;76.30;;;;;;5071646;28;20131;-40
2023/06/20 01:50:17;;;;;;;8.55;6.82;;;21.00;75.00;;;;;;5071215;28;20044;-37
2023/06/20 01:52:44;;;;;;;9.32;6.90;;;22.60;73.10;;;;;;5071056;28;20382;-40
2023/06/20 01:55:13;;;;;;;8.45;6.60;;;21.00;75.10;;;;;;5073228;28;20048;-35
2023/06/20 01:57:39;;;;;;;7.93;6.97;;;22.40;76.30;;;;;;5091112;28;20056;-38
2023/06/20 02:00:09;;;;;;;9.98;7.85;;;22.10;66.50;;;;;;5091202;28;20044;-39
2023/06/20 02:02:35;;;;;;;10.65;7.35;;;22.20;76.60;;;;;;5090773;28;20051;-39
2023/06/20 02:05:02;;;;;;;12.32;7.40;;;21.80;65.50;;;;;;5091201;28;20127;-34
2023/06/20 02:07:29;;;;;;;9.45;7.35;;;21.60;75.70;;;;;;5091575;28;20087;-39
2023/06/20 02:09:57;;;;;;;11.93;7.80;;;;;;;;;;5091293;28;20059;-36
2023/06/20 02:12:25;;;;;;;8.57;7.68;;;22.40;72.70;;;;;;5090097;28;20514;-36
2023/06/20 02:14:52;;;;;;;9.75;7.55;;;;;;;;;;5091163;28;20048;-35
2023/06/20 02:17:19;;;;;;;12.95;8.20;;;;;;;;;;5091252;28;20131;-38
2023/06/20 02:19:46;;;;;;;10.30;7.95;;;;;;;;;;5090974;28;20059;-36
2023/06/20 02:22:15;;;;;;;9.88;7.72;;;21.90;75.90;;;;;;5092285;28;20400;-39
2023/06/20 02:24:41;;;;;;;11.48;8.68;;;22.30;76.40;;;;;;5094876;28;20052;-36
2023/06/20 02:27:08;;;;;;;10.20;8.20;;;21.70;76.00;;;;;;5094673;28;20563;-36
2023/06/20 02:29:38;;;;;;;10.50;7.93;;;21.20;60.80;;;;;;5093223;28;20127;-36
2023/06/20 02:32:05;;;;;;;9.88;7.90;;;23.00;76.70;;;;;;5094677;28;20052;-39
2023/06/20 02:34:32;;;;;;;12.15;8.48;;;23.00;76.70;;;;;;5094866;28;20052;-39
2023/06/20 02:36:59;;;;;;;9.15;7.88;;;21.90;76.40;;;;;;5094173;28;20054;-37
2023/06/20 02:39:26;;;;;;;10.20;8.38;;;;;;;;;;5094932;28;20409;-38
2023/06/20 02:41:53;;;;;;;12.57;8.85;;;21.90;76.20;;;;;;5094545;28;20058;-35
2023/06/20 02:44:20;;;;;;;11.25;9.07;;;;;;;;;;5094394;28;20044;-37
2023/06/20 02:46:53;;;;;;;10.10;8.43;;;21.90;76.20;;;;;;5086812;28;20132;-40
2023/06/20 02:49:22;;;;;;;11.48;8.52;;;21.80;61.20;;;;;;5074268;28;20171;-36
2023/06/20 02:52:05;;;;;;;17.63;9.88;;;22.10;71.50;;;;;;5074081;28;20055;-40
2023/06/20 02:54:36;;;;;;;12.02;8.63;;;21.90;60.50;;;;;;5074113;28;20075;-36
2023/06/20 02:57:04;;;;;;;11.70;8.80;;;21.40;76.40;;;;;;5077703;28;20075;-38
2023/06/20 02:59:31;;;;;;;12.70;9.48;;;22.30;76.80;;;;;;5094477;28;20197;-39
2023/06/20 03:01:59;;;;;;;11.82;9.10;;;22.50;60.70;;;;;;5094250;28;20056;-35
2023/06/20 03:04:26;;;;;;;12.90;8.75;;;21.90;60.40;;;;;;5081098;28;20123;-35
2023/06/20 03:06:53;;;;;;;13.07;10.02;;;22.00;77.10;;;;;;5073968;28;20139;-39
2023/06/20 03:09:21;;;;;;;11.30;9.10;;;;;;;;;;5083665;28;20408;-33
2023/06/20 03:11:47;;;;;;;10.95;8.52;;;21.60;76.50;;;;;;5094118;28;20135;-31
2023/06/20 03:14:14;;;;;;;11.85;8.68;;;;;;;;;;5094322;28;20445;-35
2023/06/20 03:16:42;;;;;;;11.85;9.25;;;21.70;76.90;;;;;;5093979;28;20052;-31
2023/06/20 03:19:10;;;;;;;12.20;9.23;;;22.20;60.70;;;;;;5093891;28;20519;-33
2023/06/20 03:21:37;;;;;;;10.02;8.52;;;21.90;77.00;;;;;;5080080;28;20479;-31
2023/06/20 03:24:04;;;;;;;11.43;8.88;;;22.60;76.60;;;;;;5073581;28;20139;-31
2023/06/20 03:26:32;;;;;;;12.13;8.98;;;22.20;76.70;;;;;;5073586;28;20045;-32
2023/06/20 03:28:59;;;;;;;11.68;9.10;;;22.20;62.80;;;;;;5073808;28;20055;-33
2023/06/20 03:31:26;;;;;;;12.73;9.10;;;21.90;77.00;;;;;;5073545;28;20485;-31
2023/06/20 03:33:53;;;;;;;13.27;9.20;;;;;;;;;;5072078;28;20049;-35
2023/06/20 03:36:21;;;;;;;10.95;8.98;;;20.80;75.80;;;;;;5077127;28;20048;-31
2023/06/20 03:38:48;;;;;;;12.25;9.63;;;20.90;75.70;;;;;;5078743;28;20054;-31
2023/06/20 03:41:14;;;;;;;11.65;9.52;;;21.40;76.40;;;;;;5073528;28;20049;-31
2023/06/20 03:43:41;;;;;;;11.00;8.68;;;;;;;;;;5073010;28;20117;-35
2023/06/20 03:46:08;;;;;;;10.70;9.50;;;22.00;76.50;;;;;;5073509;28;20083;-32
2023/06/20 03:48:35;;;;;;;11.25;8.98;;;;;;;;;;5072925;28;20052;-35
2023/06/20 03:51:02;;;;;;;11.05;9.50;;;22.10;76.30;;;;;;5073003;28;20053;-31
2023/06/20 03:53:30;;;;;;;10.23;8.60;;;21.90;60.40;;;;;;5085077;28;20131;-35
2023/06/20 03:55:57;;;;;;;12.27;9.80;;;;;;;;;;5081912;28;20508;-35
2023/06/20 03:58:24;;;;;;;13.18;9.18;;;21.50;76.10;;;;;;5072904;28;20487;-31
2023/06/20 04:00:51;;;;;;;11.80;9.30;;;21.90;76.60;;;;;;5072715;28;20090;-32
2023/06/20 04:03:18;;;;;;;12.60;9.10;;;21.60;69.30;;;;;;5072801;28;20086;-32
2023/06/20 04:05:45;;;;;;;11.82;9.88;;;20.80;67.80;;;;;;5072558;28;20418;-31
2023/06/20 04:08:12;;;;;;;12.93;9.13;;;;;;;;;;5073192;28;20056;-33
2023/06/20 04:10:40;;;;;;;12.23;9.13;;;22.00;60.20;;;;;;5092884;28;20584;-32
2023/06/20 04:13:06;;;;;;;13.20;9.32;;;22.70;76.30;;;;;;5092022;28;20123;-31
2023/06/20 04:15:33;;;;;;;13.68;8.98;;;21.90;76.70;;;;;;5092847;28;20486;-31
2023/06/20 04:18:00;;;;;;;12.60;9.35;;;;;;;;;;5092506;28;20134;-36
2023/06/20 04:20:27;;;;;;;11.80;9.27;;;22.10;75.80;;;;;;5092597;28;20050;-31
2023/06/20 04:22:53;;;;;;;10.23;8.98;;;21.90;76.00;;;;;;5092178;28;20570;-31
2023/06/20 04:25:21;;;;;;;12.45;9.95;;;;;;;;;;5092956;28;20123;-36
2023/06/20 04:27:53;;;;;;;13.63;9.60;;;20.90;75.20;;;;;;5091038;28;20138;-31
2023/06/20 04:30:20;;;;;;;11.25;8.98;;;22.60;77.00;;;;;;5092203;28;20410;-31
2023/06/20 04:32:46;;;;;;;11.65;8.50;;;22.60;63.80;;;;;;5091990;28;20048;-32
2023/06/20 04:35:14;;;;;;;13.30;8.73;;;22.40;75.90;;;;;;5092773;28;20056;-31
2023/06/20 04:37:41;;;;;;;10.82;8.32;;;;;;;;;;5091969;28;20420;-33
2023/06/20 04:40:11;;;;;;;10.98;8.23;;;22.10;60.10;;;;;;5091692;28;20139;-31
2023/06/20 04:42:38;;;;;;;10.80;8.57;;;;;;;;;;5081092;28;20048;-31
2023/06/20 04:45:08;;;;;;;13.02;8.40;;;21.60;76.60;;;;;;5071449;28;20134;-31
2023/06/20 04:47:34;;;;;;;13.13;9.00;;;22.20;66.40;;;;;;5071239;28;20044;-31
2023/06/20 04:50:03;;;;;;;11.88;9.00;;;22.20;65.80;;;;;;5079438;28;20078;-34
2023/06/20 04:52:30;;;;;;;10.18;8.73;;;21.70;76.30;;;;;;5091849;28;20145;-31
2023/06/20 04:55:01;;;;;;;10.30;8.80;;;22.00;77.00;;;;;;5092285;28;20130;-31
2023/06/20 04:57:28;;;;;;;12.38;8.88;;;22.10;77.60;;;;;;5092308;28;20378;-31
2023/06/20 04:59:55;;;;;;;11.20;8.75;;;21.90;73.00;;;;;;5091836;28;20072;-31
2023/06/20 05:02:23;;;;;;;10.82;8.95;;;21.80;61.10;;;;;;5082820;28;20127;-33
2023/06/20 05:04:50;;;;;;;10.65;8.75;;;21.60;66.40;;;;;;5071924;28;20057;-33
2023/06/20 05:07:17;;;;;;;11.63;8.68;;;22.10;77.30;;;;;;5072078;28;20122;-31
2023/06/20 05:09:44;;;;;;;11.52;8.38;;;;;;;;;;5084913;28;20048;-32
2023/06/20 05:12:11;;;;;;;12.18;8.68;;;21.60;61.50;;;;;;5090765;28;20048;-37
2023/06/20 05:14:38;;;;;;;11.27;8.70;;;;;;;;;;5091569;28;20484;-33
2023/06/20 05:17:05;;;;;;;11.23;8.95;;;21.20;77.70;;;;;;5091761;28;20579;-30
2023/06/20 05:19:33;;;;;;;9.82;8.18;;;21.70;61.70;;;;;;5090136;28;20135;-35
2023/06/20 05:22:01;;;;;;;10.38;8.55;;;21.70;69.90;;;;;;5091556;28;20447;-34
2023/06/20 05:24:27;;;;;;;12.07;8.20;;;21.90;63.80;;;;;;5091719;28;20526;-37
2023/06/20 05:26:54;;;;;;;10.73;8.55;;;;;;;;;;5091663;28;20044;-34
2023/06/20 05:29:21;;;;;;;10.88;7.85;;;20.90;78.10;;;;;;5091925;28;20134;-40
2023/06/20 05:31:48;;;;;;;10.27;7.75;;;21.30;76.30;;;;;;5091402;28;20556;-39
2023/06/20 05:34:15;;;;;;;10.55;7.43;;;;;;;;;;5077814;28;20127;-35
2023/06/20 05:36:43;;;;;;;8.93;6.97;;;22.10;78.90;;;;;;5078187;28;20138;-36
2023/06/20 05:39:09;;;;;;;9.55;7.15;;;21.60;78.00;;;;;;5091698;28;20127;-40
2023/06/20 05:41:36;;;;;;;8.93;7.65;;;22.10;78.10;;;;;;5091505;28;20055;-38
2023/06/20 05:44:03;;;;;;;10.52;7.30;;;;;;;;;;5091246;28;20058;-39
2023/06/20 05:46:30;;;;;;;8.18;7.28;;;22.10;79.00;;;;;;5091450;28;20056;-39
2023/06/20 05:48:59;;;;;;;8.23;7.00;;;;;;;;;;5091506;28;20062;-37
2023/06/20 05:51:27;;;;;;;11.27;7.18;;;21.80;78.70;;;;;;5073610;28;20048;-39
2023/06/20 05:53:57;;;;;;;9.07;7.05;;;21.70;78.70;;;;;;5071027;28;20090;-38
2023/06/20 05:56:24;;;;;;;8.85;7.40;;;20.80;75.80;;;;;;5071256;28;20052;-37
2023/06/20 05:58:50;;;;;;;9.15;6.93;;;21.80;78.50;;;;;;5075325;28;20083;-38
2023/06/20 06:01:17;;;;;;;8.10;6.80;;;;;;;;;;5074986;28;20131;-37
2023/06/20 06:03:47;;;;;;;7.47;6.53;;;21.80;76.60;;;;;;5085734;28;20052;-36
2023/06/20 06:06:14;;;;;;;9.85;7.43;;;21.50;77.60;;;;;;5083877;28;20053;-37
2023/06/20 06:08:41;;;;;;;8.13;6.78;;;21.50;78.00;;;;;;5079146;28;20040;-36
2023/06/20 06:11:09;;;;;;;9.85;7.07;;;21.70;70.70;;;;;;5083771;28;20063;-35
2023/06/20 06:13:38;;;;;;;11.50;6.82;;;21.80;69.60;;;;;;5084145;28;20169;-37
2023/06/20 06:16:05;;;;;;;8.95;6.72;;;22.50;78.10;;;;;;5085621;28;20543;-37
2023/06/20 06:18:32;;;;;;;9.63;6.90;;;;;;;;;;5083793;28;20048;-34
2023/06/20 06:20:59;;;;;;;9.52;7.05;;;22.20;66.50;;;;;;5085877;28;20132;-40
2023/06/20 06:23:27;;;;;;;8.30;6.53;;;;;;;;;;5082977;28;20044;-37
2023/06/20 06:25:53;;;;;;;8.90;6.35;;;22.40;78.30;;;;;;5074798;28;20105;-39
2023/06/20 06:28:23;;;;;;;8.18;6.47;;;23.00;62.50;;;;;;5074620;28;20048;-36
2023/06/20 06:30:50;;;;;;;7.63;6.20;;;;;;;;;;5074565;28;20106;-36
2023/06/20 06:33:18;;;;;;;7.70;6.28;;;21.60;77.30;;;;;;5082245;28;20041;-38
2023/06/20 06:35:45;;;;;;;7.75;6.13;;;22.00;66.30;;;;;;5094621;28;20401;-37
2023/06/20 06:38:11;;;;;;;7.95;5.95;;;22.20;77.60;;;;;;5094331;28;20409;-40
2023/06/20 06:40:38;;;;;;;6.68;6.03;;;;;;;;;;5086584;28;20041;-35
2023/06/20 06:43:05;;;;;;;7.68;6.15;;;22.30;78.40;;;;;;5094398;28;20054;-36
2023/06/20 06:45:33;;;;;;;7.10;6.40;;;21.90;77.50;;;;;;5094689;28;20127;-36
2023/06/20 06:48:00;;;;;;;6.53;5.85;;;22.70;78.90;;;;;;5094973;28;20048;-37
2023/06/20 06:50:27;;;;;;;7.55;5.95;;;;;;;;;;5094511;28;20044;-34
2023/06/20 06:52:54;;;;;;;7.32;5.97;;;22.00;78.40;;;;;;5094429;28;20058;-39
2023/06/20 06:55:21;;;;;;;6.97;6.03;;;;;;;;;;5094449;28;20059;-40
2023/06/20 06:57:47;;;;;;;6.50;5.57;;;22.70;78.00;;;;;;5079390;28;20558;-40
2023/06/20 07:00:15;;;;;;;6.30;5.40;;;21.60;77.90;;;;;;5075225;28;20134;-39
2023/06/20 07:02:44;;;;;;;6.82;5.47;;;22.00;77.10;;;;;;5073773;28;20044;-38
2023/06/20 07:05:11;;;;;;;7.65;6.10;;;22.20;77.20;;;;;;5074327;28;20049;-35
2023/06/20 07:07:37;;;;;;;5.93;5.25;;;22.30;69.20;;;;;;5074278;28;20135;-38
2023/06/20 07:10:05;;;;;;;6.85;5.38;;;21.90;77.10;;;;;;5089998;28;20131;-40
2023/06/20 07:12:32;;;;;;;8.25;5.55;;;;;;;;;;5093911;28;20127;-35
2023/06/20 07:14:58;;;;;;;9.63;5.45;;;22.00;76.80;;;;;;5076459;28;20059;-41
2023/06/20 07:17:26;;;;;;;8.20;5.90;;;;;;;;;;5074005;28;20049;-40
2023/06/20 07:19:54;;;;;;;6.63;5.03;;;22.30;77.00;;;;;;5076233;28;20135;-41
2023/06/20 07:22:21;;;;;;;6.03;5.22;;;22.10;76.80;;;;;;5083338;28;20048;-39
2023/06/20 07:24:48;;;;;;;6.43;5.07;;;22.10;67.30;;;;;;5073778;28;20624;-39
2023/06/20 07:27:15;;;;;;;7.07;5.40;;;21.80;77.10;;;;;;5091339;28;20079;-39
2023/06/20 07:29:42;;;;;;;6.80;5.22;;;;;;;;;;5087488;28;20087;-35
2023/06/20 07:32:09;;;;;;;6.45;5.18;;;22.00;76.40;;;;;;5082867;28;20132;-40
2023/06/20 07:34:35;;;;;;;6.57;5.30;;;22.60;73.70;;;;;;5084675;28;20481;-39
2023/06/20 07:37:04;;;;;;;6.68;4.90;;;21.90;62.90;;;;;;5080660;28;20136;-34
2023/06/20 07:39:31;;;;;;;9.25;5.32;;;;;;;;;;5083819;28;20210;-38
2023/06/20 07:41:58;;;;;;;7.00;5.20;;;22.10;76.40;;;;;;5086698;28;20119;-38
2023/06/20 07:44:24;;;;;;;8.15;5.53;;;23.00;70.30;;;;;;5082586;28;20119;-36
2023/06/20 07:46:51;;;;;;;6.22;5.28;;;22.50;76.90;;;;;;5083104;28;20050;-38
2023/06/20 07:49:18;;;;;;;7.65;4.90;;;21.40;76.00;;;;;;5090626;28;20613;-36
2023/06/20 07:51:46;;;;;;;6.65;5.10;;;22.10;67.10;;;;;;5092416;28;20133;-38
2023/06/20 07:54:15;;;;;;;6.25;4.93;;;22.30;76.50;;;;;;5093210;28;20049;-39
2023/06/20 07:56:41;;;;;;;5.63;5.03;;;22.00;76.50;;;;;;5093411;28;20048;-37
2023/06/20 07:59:08;;;;;;;6.13;5.00;;;22.20;76.30;;;;;;5093291;28;20135;-40
2023/06/20 08:01:35;;;;;;;7.75;4.88;;;;;;;;;;5083547;28;20106;-39
2023/06/20 08:04:02;;;;;;;8.43;5.30;;;;;;;;;;5072849;28;20119;-38
2023/06/20 08:06:29;;;;;;;6.13;5.00;;;;;;;;;;5073012;28;20054;-37
2023/06/20 08:08:56;;;;;;;8.13;5.45;;;21.50;76.00;;;;;;5079527;28;20135;-40
2023/06/20 08:11:24;;;;;;;5.53;4.93;;;22.80;76.70;;;;;;5093041;28;20131;-37
2023/06/20 08:13:51;;;;;;;5.53;4.72;;;22.20;76.20;;;;;;5092609;28;20048;-37
2023/06/20 08:16:18;;;;;;;5.55;4.78;;;;;;;;;;5093390;28;20127;-38
2023/06/20 08:18:45;;;;;;;5.60;5.00;;;22.90;76.20;;;;;;5087098;28;20050;-39
2023/06/20 08:21:12;;;;;;;5.18;4.30;;;;;;;;;;5082102;28;20398;-36
2023/06/20 08:23:38;;;;;;;6.20;4.93;;;22.50;75.90;;;;;;5080699;28;20063;-39
2023/06/20 08:26:05;;;;;;;5.55;4.75;;;22.20;63.00;;;;;;5078777;28;20135;-39
2023/06/20 08:28:33;;;;;;;6.22;4.90;;;22.50;68.70;;;;;;5079206;28;20210;-40
2023/06/20 08:31:00;;;;;;;4.80;4.30;;;22.30;66.80;;;;;;5072769;28;20054;-36
2023/06/20 08:33:27;;;;;;;6.13;4.82;;;22.20;75.70;;;;;;5072252;28;20378;-37
2023/06/20 08:35:54;;;;;;;6.07;5.18;;;22.90;76.00;;;;;;5082919;28;20538;-40
2023/06/20 08:38:20;;;;;;;6.38;4.50;;;21.70;75.60;;;;;;5092493;28;20492;-40
2023/06/20 08:40:47;;;;;;;8.25;4.85;;;22.20;75.60;;;;;;5092278;28;20131;-38
2023/06/20 08:43:14;;;;;;;7.28;4.80;;;;;;;;;;5092039;28;20571;-34
2023/06/20 08:45:42;;;;;;;5.03;4.35;;;22.90;75.90;;;;;;5092182;28;20415;-37
2023/06/20 08:48:09;;;;;;;6.03;4.50;;;22.30;75.50;;;;;;5092211;28;20044;-40
2023/06/20 08:50:37;;;;;;;5.25;4.75;;;22.20;64.90;;;;;;5092283;28;20056;-38
2023/06/20 08:53:05;;;;;;;6.40;4.78;;;22.40;75.60;;;;;;5075921;28;20412;-39
2023/06/20 08:55:32;;;;;;;6.03;5.10;;;22.90;75.80;;;;;;5092119;28;20130;-40
2023/06/20 08:57:59;;;;;;;9.13;4.75;;;;;;;;;;5092138;28;20135;-38
2023/06/20 09:00:26;;;;;;;7.50;5.28;;;22.50;75.40;;;;;;5092529;28;20131;-38
2023/06/20 09:02:55;;;;;;;7.60;5.55;;;22.60;60.20;;;;;;5091824;28;20135;-35
2023/06/20 09:05:22;;;;;;;9.20;5.10;;;;;;;;;;5092190;28;20050;-38
2023/06/20 09:07:49;;;;;;;9.30;5.50;;;22.50;75.90;;;;;;5090202;28;20043;-40
2023/06/20 09:10:19;;;;;;;7.03;5.20;;;23.30;76.20;;;;;;5092045;28;20072;-40
2023/06/20 09:12:47;;;;;;;7.22;5.47;;;22.20;76.20;;;;;;5078940;28;20048;-36
2023/06/20 09:15:14;;;;;;;8.60;5.38;;;21.80;75.80;;;;;;5072009;28;20147;-40
2023/06/20 09:17:42;;;;;;;7.57;5.18;;;22.30;63.20;;;;;;5071789;28;20040;-35
2023/06/20 09:20:11;;;;;;;6.90;5.07;;;22.20;63.90;;;;;;5080780;28;20404;-38
2023/06/20 09:22:39;;;;;;;10.70;5.43;;;22.60;66.00;;;;;;5081860;28;20149;-40
2023/06/20 09:25:06;;;;;;;6.43;5.18;;;22.20;63.80;;;;;;5077191;28;20508;-39
2023/06/20 09:27:34;;;;;;;7.72;5.80;;;22.30;75.90;;;;;;5071716;28;20044;-38
2023/06/20 09:30:01;;;;;;;7.68;5.32;;;23.10;75.90;;;;;;5071481;28;20056;-38
2023/06/20 09:32:28;;;;;;;6.93;5.43;;;;;;;;;;5090166;28;20519;-37
2023/06/20 09:34:55;;;;;;;7.65;5.28;;;22.60;76.00;;;;;;5095761;28;20560;-37
2023/06/20 09:37:23;;;;;;;7.43;5.28;;;22.60;60.80;;;;;;5095423;28;20052;-36
2023/06/20 09:39:50;;;;;;;7.97;5.30;;;;;;;;;;5090891;28;20467;-37
2023/06/20 09:42:17;;;;;;;7.22;5.22;;;22.60;75.40;;;;;;5084085;28;20048;-40
2023/06/20 09:44:44;;;;;;;6.60;5.03;;;;;;;;;;5086006;28;20416;-36
2023/06/20 09:47:11;;;;;;;6.97;5.30;;;22.90;76.20;;;;;;5089634;28;20461;-36
2023/06/20 09:49:39;;;;;;;8.52;5.07;;;22.20;75.30;;;;;;5096095;28;20051;-37
2023/06/20 09:52:07;;;;;;;6.78;5.38;;;23.60;75.70;;;;;;5075543;28;20222;-39
2023/06/20 09:54:41;;;;;;;8.90;5.45;;;22.90;60.00;;;;;;5075326;28;20533;-36
2023/06/20 09:57:10;;;;;;;7.50;5.32;;;22.90;75.70;;;;;;5075603;28;20124;-39
2023/06/20 09:59:38;;;;;;;7.07;4.82;;;22.70;75.20;;;;;;5076592;28;20045;-39
2023/06/20 10:02:07;;;;;;;7.78;5.45;;;22.70;73.30;;;;;;5075278;28;20064;-41
2023/06/20 10:04:39;;;;;;;7.40;5.10;;;23.40;75.90;;;;;;5075310;28;20055;-37
2023/06/20 10:07:05;;;;;;;7.15;4.97;;;22.80;75.10;;;;;;5075435;28;20053;-41
2023/06/20 10:09:32;;;;;;;5.97;4.78;;;22.90;75.50;;;;;;5086635;28;20048;-41
2023/06/20 10:12:00;;;;;;;6.20;4.65;;;23.00;60.00;;;;;;5095789;28;20070;-38
2023/06/20 10:14:27;;;;;;;6.40;4.75;;;;;;;;;;5094994;28;20207;-37
2023/06/20 10:16:54;;;;;;;6.68;4.72;;;23.20;75.20;;;;;;5076983;28;20048;-40
2023/06/20 10:19:21;;;;;;;5.85;4.43;;;;;;;;;;5075197;28;20064;-40
2023/06/20 10:21:54;;;;;;;6.90;4.68;;;23.10;59.80;;;;;;5075316;28;20053;-40
2023/06/20 10:24:20;;;;;;;6.00;4.90;;;23.90;68.00;;;;;;5074770;28;20041;-41
2023/06/20 10:26:52;;;;;;;6.65;4.53;;;23.00;59.70;;;;;;5076267;28;20416;-38
2023/06/20 10:29:21;;;;;;;5.30;4.78;;;23.10;59.70;;;;;;5086830;28;20119;-39
2023/06/20 10:31:57;;;;;;;6.13;4.57;;;23.10;59.60;;;;;;5092908;28;20068;-38
2023/06/20 10:34:36;;;;;;;6.80;4.63;;;23.50;72.40;;;;;;5074659;28;20127;-39
2023/06/20 10:37:14;;;;;;;8.85;5.10;;;23.10;59.60;;;;;;5084502;28;20048;-41
2023/06/20 10:39:51;;;;;;;8.43;5.03;;;23.90;75.30;;;;;;5094925;28;20465;-41
2023/06/20 10:42:31;;;;;;;5.57;4.60;;;23.30;62.00;;;;;;5094681;28;20127;-37
2023/06/20 10:45:21;;;;;;;7.57;4.53;;;23.00;71.90;;;;;;5095264;28;20127;-41
2023/06/20 10:47:48;;;;;;;6.28;4.60;;;23.00;63.40;;;;;;5095022;28;20488;-40
2023/06/20 10:50:15;;;;;;;6.05;4.90;;;23.00;74.60;;;;;;5079072;28;20132;-40
2023/06/20 10:52:42;;;;;;;7.25;4.78;;;;;;;;;;5074037;28;20131;-41
2023/06/20 10:55:09;;;;;;;6.35;4.35;;;23.00;63.60;;;;;;5074768;28;20048;-40
2023/06/20 10:57:37;;;;;;;5.25;4.35;;;;;;;;;;5073656;28;20131;-38
2023/06/20 11:00:11;;;;;;;6.88;4.65;;;24.40;75.30;;;;;;5074677;28;20044;-40
2023/06/20 11:02:39;;;;;;;;;;;23.30;59.70;;;;;;5074395;28;20056;-40
2023/06/20 11:05:09;;;;;;;5.63;4.40;;;24.40;75.60;;;;;;5074361;28;19930;-41
2023/06/20 11:07:35;;;;;;;7.40;4.90;;;22.90;74.60;;;;;;5075533;28;20049;-41
2023/06/20 11:10:13;;;;;;;5.97;4.70;;;23.30;59.70;;;;;;5089975;28;20052;-40
2023/06/20 11:12:41;;;;;;;6.72;4.68;;;23.30;62.20;;;;;;5093970;28;20128;-39
2023/06/20 11:15:21;;;;;;;6.15;4.15;;;23.00;62.80;;;;;;5094094;28;20048;-41
2023/06/20 11:17:49;;;;;;;7.57;4.35;;;23.10;75.00;;;;;;5094221;28;20568;-40
2023/06/20 11:20:16;;;;;;;5.68;4.53;;;23.10;74.50;;;;;;5094013;28;20131;-41
2023/06/20 11:22:43;;;;;;;5.25;4.18;;;;;;;;;;5092499;28;20048;-37
2023/06/20 11:25:10;;;;;;;5.25;4.35;;;23.00;68.90;;;;;;5092775;28;20055;-38
2023/06/20 11:27:38;;;;;;;4.90;4.25;;;;;;;;;;5093975;28;20130;-39
2023/06/20 11:30:06;;;;;;;4.85;4.28;;;23.40;59.60;;;;;;5094208;28;20056;-36
2023/06/20 11:32:33;;;;;;;5.20;4.38;;;;;;;;;;5093801;28;20135;-37
2023/06/20 11:35:03;;;;;;;5.10;4.57;;;23.00;75.20;;;;;;5094037;28;20054;-41
2023/06/20 11:37:30;;;;;;;4.88;4.13;;;23.10;67.20;;;;;;5093298;28;20478;-38
2023/06/20 11:39:57;;;;;;;5.35;4.35;;;23.30;74.90;;;;;;5090181;28;20055;-41
2023/06/20 11:42:24;;;;;;;6.03;4.40;;;;;;;;;;5073376;28;20075;-38
2023/06/20 11:44:51;;;;;;;7.93;4.22;;;22.30;73.90;;;;;;5073081;28;20126;-41
2023/06/20 11:47:18;;;;;;;4.82;4.32;;;;;;;;;;5073237;28;20417;-37
2023/06/20 11:49:45;;;;;;;5.68;4.35;;;23.70;75.50;;;;;;5073158;28;20059;-41
2023/06/20 11:52:13;;;;;;;7.80;4.68;;;23.90;61.80;;;;;;5072868;28;20147;-40
2023/06/20 11:54:49;;;;;;;4.63;4.13;;;24.00;75.30;;;;;;5072209;28;20055;-41
2023/06/20 11:57:24;;;;;;;4.80;4.30;;;23.40;59.60;;;;;;5074255;28;20139;-37
2023/06/20 11:59:51;;;;;;;5.25;4.07;;;;;;;;;;5073057;28;20053;-39
2023/06/20 12:02:18;;;;;;;4.72;3.97;;;23.40;75.30;;;;;;5072696;28;20048;-39
2023/06/20 12:04:44;;;;;;;4.78;4.15;;;23.40;64.80;;;;;;5072831;28;20124;-38
2023/06/20 12:07:18;;;;;;;4.72;4.00;;;23.50;74.40;;;;;;5072951;28;20044;-41
2023/06/20 12:09:44;;;;;;;4.82;4.00;;;24.40;63.30;;;;;;5086319;28;20083;-37
2023/06/20 12:12:11;;;;;;;5.15;4.10;;;23.30;74.50;;;;;;5093026;28;20154;-41
2023/06/20 12:14:38;;;;;;;6.22;4.20;;;23.60;70.40;;;;;;5080633;28;20079;-40
2023/06/20 12:17:05;;;;;;;5.70;4.57;;;23.40;59.60;;;;;;5072701;28;20127;-37
2023/06/20 12:19:32;;;;;;;4.82;4.20;;;23.90;75.50;;;;;;5075828;28;20075;-41
2023/06/20 12:21:59;;;;;;;6.80;4.18;;;;;;;;;;5092908;28;20143;-36
2023/06/20 12:24:28;;;;;;;4.68;3.88;;;23.50;74.60;;;;;;5092116;28;20040;-31
2023/06/20 12:26:55;;;;;;;5.43;4.55;;;24.20;75.70;;;;;;5093030;28;20055;-33
2023/06/20 12:29:22;;;;;;;4.88;4.20;;;23.10;73.20;;;;;;5093079;28;20044;-32
2023/06/20 12:31:49;;;;;;;4.22;3.80;;;23.80;74.90;;;;;;5092518;28;20135;-32
2023/06/20 12:34:15;;;;;;;4.25;3.50;;;23.40;67.90;;;;;;5092508;28;20106;-32
2023/06/20 12:36:42;;;;;;;5.13;3.80;;;23.20;74.80;;;;;;5092062;28;20040;-31
2023/06/20 12:39:09;;;;;;;5.07;4.10;;;24.40;75.10;;;;;;5091950;28;20560;-31
2023/06/20 12:41:37;;;;;;;4.40;4.00;;;24.20;64.30;;;;;;5092257;28;20420;-32
2023/06/20 12:44:05;;;;;;;4.28;3.88;;;23.60;65.90;;;;;;5092303;28;20054;-30
2023/06/20 12:46:32;;;;;;;4.43;4.03;;;;;;;;;;5092461;28;20500;-36
2023/06/20 12:48:59;;;;;;;5.13;4.20;;;23.30;75.00;;;;;;5092773;28;20113;-35
2023/06/20 12:51:26;;;;;;;6.13;3.80;;;;;;;;;;5092200;28;20510;-35
2023/06/20 12:53:53;;;;;;;5.13;4.10;;;23.60;74.80;;;;;;5092207;28;20378;-37
2023/06/20 12:56:20;;;;;;;4.78;3.90;;;;;;;;;;5082567;28;20119;-38
2023/06/20 12:58:48;;;;;;;4.50;4.03;;;24.20;75.90;;;;;;5080322;28;20051;-36
2023/06/20 13:01:14;;;;;;;5.78;4.53;;;23.40;74.70;;;;;;5082030;28;20070;-36
2023/06/20 13:03:42;;;;;;;4.45;3.95;;;;;;;;;;5076909;28;20050;-34
2023/06/20 13:06:08;;;;;;;4.65;4.07;;;23.20;70.20;;;;;;5080710;28;20127;-39
2023/06/20 13:08:35;;;;;;;4.00;3.60;;;23.90;75.80;;;;;;5083501;28;20047;-39